createdAt,value
2018-06-30T00:01:24.079Z,22.28
2018-06-30T00:03:53.738Z,22.13
2018-06-30T00:06:24.826Z,22.26
2018-06-30T00:08:55.116Z,22.18
2018-06-30T00:11:24.848Z,22.40
2018-06-30T00:13:54.771Z,22.43
2018-06-30T00:16:24.542Z,22.11
2018-06-30T00:18:55.766Z,22.16
2018-06-30T00:21:26.205Z,22.35
2018-06-30T00:23:55.924Z,22.27
2018-06-30T00:26:25.688Z,22.33
2018-06-30T00:28:55.535Z,22.15
2018-06-30T00:31:24.861Z,22.21
2018-06-30T00:33:54.439Z,22.15
2018-06-30T00:36:24.148Z,21.68
2018-06-30T00:38:53.675Z,21.87
2018-06-30T00:41:23.727Z,21.76
2018-06-30T00:43:53.508Z,21.61
2018-06-30T00:46:22.812Z,21.33
2018-06-30T00:48:52.387Z,21.33
2018-06-30T00:51:22.670Z,21.12
2018-06-30T00:53:52.028Z,20.99
2018-06-30T00:56:22.093Z,21.20
2018-06-30T00:58:51.668Z,21.36
2018-06-30T01:01:21.001Z,20.92
2018-06-30T01:03:50.384Z,21.02
2018-06-30T01:06:20.515Z,21.12
2018-06-30T01:08:49.876Z,21.00
2018-06-30T01:11:19.454Z,21.11
2018-06-30T01:13:48.792Z,21.41
2018-06-30T01:16:18.189Z,21.35
2018-06-30T01:18:47.933Z,21.31
2018-06-30T01:21:17.246Z,21.42
2018-06-30T01:23:46.568Z,21.49
2018-06-30T01:26:16.143Z,21.35
2018-06-30T01:28:45.485Z,21.40
2018-06-30T01:31:14.812Z,21.36
2018-06-30T01:33:44.179Z,21.14
2018-06-30T01:36:13.484Z,21.01
2018-06-30T01:38:42.827Z,20.88
2018-06-30T01:41:12.153Z,20.91
2018-06-30T01:43:42.272Z,20.80
2018-06-30T01:46:11.573Z,20.84
2018-06-30T01:48:41.235Z,20.89
2018-06-30T01:51:10.554Z,20.91
2018-06-30T01:53:39.937Z,20.90
2018-06-30T01:56:09.364Z,21.00
2018-06-30T01:58:39.026Z,20.84
2018-06-30T02:01:08.571Z,20.95
2018-06-30T02:03:37.932Z,20.84
2018-06-30T02:06:07.449Z,20.69
2018-06-30T02:08:36.776Z,20.70
2018-06-30T02:11:06.604Z,20.57
2018-06-30T02:13:35.970Z,20.75
2018-06-30T02:16:05.357Z,20.65
2018-06-30T02:18:35.387Z,20.51
2018-06-30T02:21:06.436Z,20.72
2018-06-30T02:23:35.866Z,20.60
2018-06-30T02:26:05.622Z,20.64
2018-06-30T02:28:34.943Z,20.63
2018-06-30T02:31:04.546Z,20.49
2018-06-30T02:33:33.877Z,20.54
2018-06-30T02:36:03.244Z,20.64
2018-06-30T02:38:32.551Z,20.35
2018-06-30T02:41:02.512Z,20.43
2018-06-30T02:43:32.178Z,20.56
2018-06-30T02:46:02.091Z,20.57
2018-06-30T02:48:31.524Z,20.60
2018-06-30T02:51:00.874Z,20.60
2018-06-30T02:53:30.195Z,20.41
2018-06-30T02:56:00.215Z,20.66
2018-06-30T02:58:29.630Z,20.66
2018-06-30T03:00:59.440Z,20.61
2018-06-30T03:03:28.772Z,20.58
2018-06-30T03:05:58.481Z,20.58
2018-06-30T03:08:28.100Z,20.49
2018-06-30T03:10:57.713Z,20.50
2018-06-30T03:13:27.293Z,20.57
2018-06-30T03:15:56.888Z,20.50
2018-06-30T03:18:26.237Z,20.44
2018-06-30T03:20:55.963Z,20.46
2018-06-30T03:23:26.991Z,20.32
2018-06-30T03:25:56.672Z,20.09
2018-06-30T03:28:25.971Z,20.35
2018-06-30T03:30:56.200Z,20.44
2018-06-30T03:33:25.514Z,20.43
2018-06-30T03:35:54.844Z,20.33
2018-06-30T03:38:24.575Z,20.33
2018-06-30T03:40:54.193Z,20.38
2018-06-30T03:43:23.513Z,20.36
2018-06-30T03:45:54.409Z,20.42
2018-06-30T03:48:23.809Z,20.37
2018-06-30T03:50:53.192Z,20.26
2018-06-30T03:53:22.960Z,20.20
2018-06-30T03:55:52.312Z,20.40
2018-06-30T03:58:21.833Z,20.49
2018-06-30T04:00:51.131Z,20.45
2018-06-30T04:03:21.112Z,20.64
2018-06-30T04:05:50.641Z,20.49
2018-06-30T04:08:20.407Z,20.27
2018-06-30T04:10:50.099Z,20.17
2018-06-30T04:13:19.968Z,20.18
2018-06-30T04:15:50.225Z,19.92
2018-06-30T04:18:20.335Z,20.11
2018-06-30T04:20:50.712Z,20.11
2018-06-30T04:23:20.439Z,19.98
2018-06-30T04:25:50.729Z,20.03
2018-06-30T04:28:20.813Z,20.06
2018-06-30T04:30:50.132Z,19.77
2018-06-30T04:33:20.470Z,19.70
2018-06-30T04:35:50.065Z,19.99
2018-06-30T04:38:20.328Z,19.97
2018-06-30T04:40:50.521Z,19.97
2018-06-30T04:43:19.901Z,20.05
2018-06-30T04:45:49.261Z,20.01
2018-06-30T04:48:19.483Z,20.21
2018-06-30T04:50:49.508Z,20.23
2018-06-30T04:53:18.914Z,20.23
2018-06-30T04:55:48.404Z,20.44
2018-06-30T04:58:17.984Z,20.19
2018-06-30T05:00:48.106Z,20.47
2018-06-30T05:03:17.815Z,20.52
2018-06-30T05:05:47.966Z,20.86
2018-06-30T05:08:17.608Z,20.51
2018-06-30T05:10:46.929Z,20.55
2018-06-30T05:13:16.576Z,20.29
2018-06-30T05:15:45.883Z,20.53
2018-06-30T05:18:15.217Z,20.49
2018-06-30T05:20:44.587Z,20.70
2018-06-30T05:23:13.904Z,20.43
2018-06-30T05:25:43.269Z,20.49
2018-06-30T05:28:12.577Z,20.82
2018-06-30T05:30:41.940Z,20.95
2018-06-30T05:33:11.239Z,20.93
2018-06-30T05:35:41.115Z,20.96
2018-06-30T05:38:10.883Z,20.91
2018-06-30T05:40:41.302Z,20.89
2018-06-30T05:43:10.894Z,20.86
2018-06-30T05:45:40.719Z,20.77
2018-06-30T05:48:10.270Z,20.95
2018-06-30T05:50:39.950Z,20.89
2018-06-30T05:53:09.685Z,20.93
2018-06-30T05:55:39.058Z,21.12
2018-06-30T05:58:08.393Z,21.18
2018-06-30T06:00:37.768Z,21.14
2018-06-30T06:03:07.899Z,20.93
2018-06-30T06:05:37.251Z,21.13
2018-06-30T06:08:06.652Z,21.11
2018-06-30T06:10:36.035Z,21.13
2018-06-30T06:13:05.988Z,21.18
2018-06-30T06:15:35.730Z,21.31
2018-06-30T06:18:05.480Z,21.27
2018-06-30T06:20:35.178Z,21.33
2018-06-30T06:23:04.488Z,21.23
2018-06-30T06:25:34.452Z,21.29
2018-06-30T06:28:03.772Z,21.17
2018-06-30T06:30:33.122Z,21.24
2018-06-30T06:33:03.380Z,21.49
2018-06-30T06:35:32.996Z,21.67
2018-06-30T06:38:02.309Z,21.73
2018-06-30T06:40:31.651Z,21.77
2018-06-30T06:43:00.975Z,21.80
2018-06-30T06:45:31.120Z,21.82
2018-06-30T06:48:01.387Z,21.93
2018-06-30T06:50:31.289Z,21.95
2018-06-30T06:53:01.578Z,22.10
2018-06-30T06:55:30.899Z,21.92
2018-06-30T06:58:00.285Z,21.93
2018-06-30T07:00:30.251Z,22.12
2018-06-30T07:03:00.141Z,22.05
2018-06-30T07:05:29.495Z,22.19
2018-06-30T07:07:58.873Z,22.10
2018-06-30T07:10:28.196Z,22.05
2018-06-30T07:12:57.574Z,22.19
2018-06-30T07:15:26.885Z,22.30
2018-06-30T07:17:56.280Z,22.31
2018-06-30T07:20:25.611Z,22.40
2018-06-30T07:22:55.319Z,22.44
2018-06-30T07:25:26.100Z,22.53
2018-06-30T07:27:55.430Z,22.55
2018-06-30T07:30:25.116Z,22.50
2018-06-30T07:32:54.478Z,22.55
2018-06-30T07:35:23.848Z,22.58
2018-06-30T07:37:53.561Z,22.60
2018-06-30T07:40:23.168Z,22.70
2018-06-30T07:42:52.534Z,22.64
2018-06-30T07:45:26.149Z,22.75
2018-06-30T07:47:55.819Z,22.91
2018-06-30T07:50:25.532Z,23.17
2018-06-30T07:52:55.188Z,23.03
2018-06-30T07:55:24.703Z,23.18
2018-06-30T07:57:54.744Z,23.12
2018-06-30T08:00:24.526Z,22.95
2018-06-30T08:02:53.902Z,22.95
2018-06-30T08:05:24.336Z,23.12
2018-06-30T08:07:53.729Z,23.05
2018-06-30T08:10:23.082Z,23.01
2018-06-30T08:12:52.400Z,23.04
2018-06-30T08:15:22.194Z,23.32
2018-06-30T08:17:51.796Z,23.28
2018-06-30T08:20:21.559Z,23.18
2018-06-30T08:22:50.916Z,23.30
2018-06-30T08:25:20.827Z,23.21
2018-06-30T08:27:50.560Z,23.32
2018-06-30T08:30:19.911Z,23.40
2018-06-30T08:32:49.479Z,23.79
2018-06-30T08:35:19.430Z,23.75
2018-06-30T08:37:49.041Z,23.94
2018-06-30T08:40:18.388Z,24.27
2018-06-30T08:42:47.950Z,24.21
2018-06-30T08:45:17.322Z,24.14
2018-06-30T08:47:46.695Z,23.93
2018-06-30T08:50:16.040Z,23.88
2018-06-30T08:52:46.101Z,23.93
2018-06-30T08:55:15.733Z,24.14
2018-06-30T08:57:45.351Z,24.28
2018-06-30T09:00:14.929Z,24.28
2018-06-30T09:02:45.475Z,24.53
2018-06-30T09:05:15.866Z,24.58
2018-06-30T09:07:45.207Z,24.76
2018-06-30T09:10:14.922Z,24.86
2018-06-30T09:12:44.290Z,25.29
2018-06-30T09:15:13.652Z,25.11
2018-06-30T09:17:42.984Z,24.58
2018-06-30T09:20:13.364Z,25.00
2018-06-30T09:22:42.982Z,24.94
2018-06-30T09:25:12.346Z,25.11
2018-06-30T09:27:42.114Z,25.35
2018-06-30T09:30:11.533Z,25.45
2018-06-30T09:32:40.846Z,25.44
2018-06-30T09:35:10.989Z,25.51
2018-06-30T09:37:40.341Z,25.67
2018-06-30T09:40:09.724Z,25.55
2018-06-30T09:42:40.523Z,25.66
2018-06-30T09:45:09.897Z,25.82
2018-06-30T09:47:40.073Z,26.08
2018-06-30T09:50:09.440Z,25.69
2018-06-30T09:52:38.828Z,25.52
2018-06-30T09:55:08.460Z,25.82
2018-06-30T09:57:39.361Z,26.08
2018-06-30T10:00:09.729Z,25.90
2018-06-30T10:02:39.498Z,26.18
2018-06-30T10:05:09.219Z,26.46
2018-06-30T10:07:39.335Z,26.35
2018-06-30T10:10:08.696Z,26.20
2018-06-30T10:12:38.121Z,26.33
2018-06-30T10:15:07.393Z,26.61
2018-06-30T10:17:37.208Z,26.03
2018-06-30T10:20:07.007Z,26.55
2018-06-30T10:22:36.363Z,26.66
2018-06-30T10:25:06.412Z,26.65
2018-06-30T10:27:35.782Z,26.69
2018-06-30T10:30:05.727Z,26.78
2018-06-30T10:32:35.411Z,27.47
2018-06-30T10:35:06.679Z,26.83
2018-06-30T10:37:36.263Z,27.13
2018-06-30T10:40:06.039Z,27.38
2018-06-30T10:42:35.698Z,27.27
2018-06-30T10:45:05.984Z,27.54
2018-06-30T10:47:35.432Z,27.90
2018-06-30T10:50:05.807Z,27.70
2018-06-30T10:52:35.415Z,27.67
2018-06-30T10:55:05.154Z,27.72
2018-06-30T10:57:34.984Z,27.16
2018-06-30T11:00:04.864Z,27.97
2018-06-30T11:02:34.250Z,28.12
2018-06-30T11:05:03.722Z,28.11
2018-06-30T11:07:33.444Z,28.23
2018-06-30T11:10:03.200Z,27.95
2018-06-30T11:12:32.817Z,28.01
2018-06-30T11:15:02.509Z,27.83
2018-06-30T11:17:31.867Z,27.78
2018-06-30T11:20:01.541Z,27.99
2018-06-30T11:22:31.203Z,28.47
2018-06-30T11:25:00.822Z,28.52
2018-06-30T11:27:30.627Z,28.61
2018-06-30T11:30:00.308Z,28.67
2018-06-30T11:32:29.621Z,28.79
2018-06-30T11:34:58.962Z,28.95
2018-06-30T11:37:28.681Z,29.05
2018-06-30T11:39:58.021Z,28.99
2018-06-30T11:42:29.132Z,28.90
2018-06-30T11:44:58.824Z,29.16
2018-06-30T11:47:29.100Z,28.93
2018-06-30T11:49:59.703Z,29.18
2018-06-30T11:52:29.945Z,29.32
2018-06-30T11:55:00.719Z,28.96
2018-06-30T11:57:30.264Z,28.98
2018-06-30T11:59:59.607Z,29.21
2018-06-30T12:02:28.943Z,29.19
2018-06-30T12:04:58.311Z,29.32
2018-06-30T12:07:27.956Z,29.02
2018-06-30T12:09:57.324Z,29.15
2018-06-30T12:12:26.700Z,29.20
2018-06-30T12:14:56.141Z,29.37
2018-06-30T12:17:25.522Z,29.37
2018-06-30T12:19:55.555Z,29.67
2018-06-30T12:22:25.001Z,29.31
2018-06-30T12:24:54.472Z,30.35
2018-06-30T12:27:24.148Z,30.02
2018-06-30T12:29:53.784Z,30.00
2018-06-30T12:32:23.372Z,29.71
2018-06-30T12:34:53.073Z,30.15
2018-06-30T12:37:22.445Z,30.04
2018-06-30T12:39:51.837Z,30.31
2018-06-30T12:42:21.916Z,29.92
2018-06-30T12:44:51.524Z,29.69
2018-06-30T12:47:20.832Z,29.78
2018-06-30T12:49:50.162Z,30.04
2018-06-30T12:52:20.364Z,30.70
2018-06-30T12:54:49.740Z,30.93
2018-06-30T12:57:21.433Z,30.78
2018-06-30T12:59:51.079Z,31.20
2018-06-30T13:02:21.019Z,30.81
2018-06-30T13:04:50.402Z,30.67
2018-06-30T13:07:20.547Z,30.58
2018-06-30T13:09:50.480Z,30.37
2018-06-30T13:12:20.820Z,30.80
2018-06-30T13:14:50.133Z,30.26
2018-06-30T13:17:19.498Z,30.30
2018-06-30T13:19:50.135Z,30.87
2018-06-30T13:22:20.483Z,30.76
2018-06-30T13:24:50.699Z,30.49
2018-06-30T13:27:20.489Z,31.02
2018-06-30T13:29:49.867Z,30.36
2018-06-30T13:32:19.803Z,31.05
2018-06-30T13:34:49.405Z,30.85
2018-06-30T13:37:18.752Z,30.25
2018-06-30T13:39:48.431Z,30.48
2018-06-30T13:42:17.833Z,31.46
2018-06-30T13:44:47.167Z,31.24
2018-06-30T13:47:16.922Z,31.31
2018-06-30T13:49:46.282Z,31.65
2018-06-30T13:52:17.036Z,31.63
2018-06-30T13:54:46.613Z,31.30
2018-06-30T13:57:15.994Z,32.24
2018-06-30T13:59:46.205Z,31.60
2018-06-30T14:02:15.591Z,31.00
2018-06-30T14:04:45.362Z,31.18
2018-06-30T14:07:14.695Z,30.90
2018-06-30T14:09:44.056Z,31.98
2018-06-30T14:12:13.997Z,30.83
2018-06-30T14:14:43.972Z,31.56
2018-06-30T14:17:13.520Z,31.65
2018-06-30T14:19:43.181Z,32.22
2018-06-30T14:22:13.295Z,32.22
2018-06-30T14:24:42.914Z,32.13
2018-06-30T14:27:12.267Z,32.19
2018-06-30T14:29:41.740Z,31.18
2018-06-30T14:32:11.108Z,31.90
2018-06-30T14:34:40.983Z,32.20
2018-06-30T14:37:10.736Z,32.06
2018-06-30T14:39:40.051Z,32.30
2018-06-30T14:42:09.521Z,32.20
2018-06-30T14:44:39.465Z,31.84
2018-06-30T14:47:09.505Z,31.79
2018-06-30T14:49:38.925Z,32.49
2018-06-30T14:52:08.939Z,32.23
2018-06-30T14:54:38.941Z,31.85
2018-06-30T14:57:08.280Z,31.85
2018-06-30T14:59:37.869Z,31.85
2018-06-30T15:02:08.438Z,31.97
2018-06-30T15:04:37.872Z,32.15
2018-06-30T15:07:07.636Z,32.41
2018-06-30T15:09:37.005Z,32.42
2018-06-30T15:12:07.042Z,32.60
2018-06-30T15:14:37.106Z,31.93
2018-06-30T15:17:06.942Z,31.73
2018-06-30T15:19:36.290Z,32.56
2018-06-30T15:22:05.676Z,32.11
2018-06-30T15:24:35.817Z,31.65
2018-06-30T15:27:05.274Z,32.05
2018-06-30T15:29:34.986Z,32.66
2018-06-30T15:32:04.973Z,31.78
2018-06-30T15:34:34.998Z,32.43
2018-06-30T15:37:04.810Z,32.35
2018-06-30T15:39:35.570Z,31.74
2018-06-30T15:42:04.937Z,31.06
2018-06-30T15:44:35.450Z,32.66
2018-06-30T15:47:04.868Z,31.39
2018-06-30T15:49:34.218Z,31.76
2018-06-30T15:52:03.961Z,31.53
2018-06-30T15:54:33.894Z,31.70
2018-06-30T15:57:03.232Z,32.36
2018-06-30T15:59:32.940Z,31.88
2018-06-30T16:02:02.302Z,32.44
2018-06-30T16:04:31.626Z,32.88
2018-06-30T16:07:02.661Z,31.99
2018-06-30T16:09:32.430Z,31.21
2018-06-30T16:12:02.103Z,32.28
2018-06-30T16:14:31.442Z,32.63
2018-06-30T16:17:01.580Z,32.87
2018-06-30T16:19:30.898Z,31.90
2018-06-30T16:22:00.668Z,31.66
2018-06-30T16:24:30.535Z,31.46
2018-06-30T16:26:59.907Z,31.56
2018-06-30T16:29:30.358Z,31.55
2018-06-30T16:32:01.125Z,30.99
2018-06-30T16:34:30.486Z,31.42
2018-06-30T16:37:01.331Z,31.15
2018-06-30T16:39:30.672Z,30.59
2018-06-30T16:42:00.332Z,30.91
2018-06-30T16:44:29.953Z,30.99
2018-06-30T16:46:59.693Z,30.56
2018-06-30T16:49:30.157Z,30.89
2018-06-30T16:51:59.504Z,30.71
2018-06-30T16:54:28.864Z,31.14
2018-06-30T16:56:58.441Z,31.51
2018-06-30T16:59:28.277Z,31.70
2018-06-30T17:01:58.081Z,31.56
2018-06-30T17:04:27.656Z,30.76
2018-06-30T17:06:56.999Z,30.64
2018-06-30T17:09:26.596Z,30.26
2018-06-30T17:11:56.185Z,29.60
2018-06-30T17:14:26.158Z,30.24
2018-06-30T17:16:55.493Z,30.44
2018-06-30T17:19:25.416Z,30.04
2018-06-30T17:21:55.530Z,30.15
2018-06-30T17:24:24.894Z,29.73
2018-06-30T17:26:54.642Z,29.69
2018-06-30T17:29:24.012Z,29.54
2018-06-30T17:31:53.417Z,30.12
2018-06-30T17:34:22.829Z,29.94
2018-06-30T17:36:52.731Z,29.85
2018-06-30T17:39:22.674Z,29.39
2018-06-30T17:41:53.454Z,29.83
2018-06-30T17:44:22.940Z,29.10
2018-06-30T17:46:52.541Z,29.08
2018-06-30T17:49:22.314Z,29.06
2018-06-30T17:51:52.011Z,29.18
2018-06-30T17:54:21.697Z,29.07
2018-06-30T17:56:51.488Z,29.03
2018-06-30T17:59:20.842Z,29.16
2018-06-30T18:01:50.214Z,28.62
2018-06-30T18:04:19.912Z,28.69
2018-06-30T18:06:49.495Z,28.34
2018-06-30T18:09:20.371Z,28.33
2018-06-30T18:11:49.733Z,28.10
2018-06-30T18:14:19.941Z,27.99
2018-06-30T18:16:49.268Z,28.22
2018-06-30T18:19:18.984Z,28.02
2018-06-30T18:21:49.192Z,27.55
2018-06-30T18:24:18.936Z,27.31
2018-06-30T18:26:48.248Z,27.48
2018-06-30T18:29:17.602Z,27.66
2018-06-30T18:31:47.769Z,27.61
2018-06-30T18:34:17.892Z,27.47
2018-06-30T18:36:47.543Z,27.76
2018-06-30T18:39:17.645Z,27.41
2018-06-30T18:41:47.013Z,27.38
2018-06-30T18:44:16.344Z,27.21
2018-06-30T18:46:45.788Z,27.23
2018-06-30T18:49:15.455Z,26.82
2018-06-30T18:51:44.818Z,26.72
2018-06-30T18:54:14.193Z,26.34
2018-06-30T18:56:43.972Z,25.96
2018-06-30T18:59:14.184Z,26.11
2018-06-30T19:01:43.592Z,25.91
2018-06-30T19:04:13.089Z,25.92
2018-06-30T19:06:42.464Z,25.80
2018-06-30T19:09:11.917Z,25.66
2018-06-30T19:11:41.577Z,25.84
2018-06-30T19:14:10.918Z,25.48
2018-06-30T19:16:40.574Z,25.25
2018-06-30T19:19:10.274Z,25.05
2018-06-30T19:21:40.278Z,25.07
2018-06-30T19:24:11.308Z,25.08
2018-06-30T19:26:40.741Z,24.69
2018-06-30T19:29:10.929Z,24.45
2018-06-30T19:31:40.323Z,24.12
2018-06-30T19:34:09.648Z,24.25
2018-06-30T19:36:39.422Z,24.30
2018-06-30T19:39:10.819Z,24.24
2018-06-30T19:41:40.432Z,24.20
2018-06-30T19:44:10.635Z,24.07
2018-06-30T19:46:40.077Z,23.82
2018-06-30T19:49:09.382Z,24.11
2018-06-30T19:51:38.712Z,23.87
2018-06-30T19:54:08.435Z,23.37
2018-06-30T19:56:38.121Z,23.16
2018-06-30T19:59:08.359Z,23.10
2018-06-30T20:01:38.097Z,23.28
2018-06-30T20:04:07.668Z,23.07
2018-06-30T20:06:37.332Z,23.37
2018-06-30T20:09:08.828Z,22.76
2018-06-30T20:11:38.227Z,22.95
2018-06-30T20:14:07.667Z,22.81
2018-06-30T20:16:37.029Z,22.46
2018-06-30T20:19:06.434Z,22.33
2018-06-30T20:21:35.861Z,22.16
2018-06-30T20:24:06.172Z,22.34
2018-06-30T20:26:35.457Z,22.34
2018-06-30T20:29:05.379Z,21.87
2018-06-30T20:31:34.965Z,22.16
2018-06-30T20:34:04.330Z,22.27
2018-06-30T20:36:33.968Z,21.85
2018-06-30T20:39:03.949Z,21.61
2018-06-30T20:41:33.347Z,21.61
2018-06-30T20:44:03.490Z,21.75
2018-06-30T20:46:32.813Z,21.58
2018-06-30T20:49:02.171Z,21.41
2018-06-30T20:51:32.305Z,21.14
2018-06-30T20:54:02.197Z,21.26
2018-06-30T20:56:31.978Z,21.15
2018-06-30T20:59:03.370Z,21.34
2018-06-30T21:01:33.300Z,21.33
2018-06-30T21:04:03.558Z,21.41
2018-06-30T21:06:32.949Z,21.14
2018-06-30T21:09:02.865Z,21.23
2018-06-30T21:11:32.185Z,20.86
2018-06-30T21:14:01.530Z,20.82
2018-06-30T21:16:30.866Z,20.75
2018-06-30T21:19:00.201Z,20.75
2018-06-30T21:21:29.877Z,20.74
2018-06-30T21:23:59.232Z,20.54
2018-06-30T21:26:28.575Z,20.51
2018-06-30T21:28:58.724Z,20.35
2018-06-30T21:31:28.438Z,20.41
2018-06-30T21:33:58.120Z,20.42
2018-06-30T21:36:27.501Z,20.38
2018-06-30T21:38:56.858Z,20.27
2018-06-30T21:41:26.360Z,20.01
2018-06-30T21:43:56.677Z,20.13
2018-06-30T21:46:26.380Z,19.99
2018-06-30T21:48:56.555Z,19.81
2018-06-30T21:51:26.262Z,19.92
2018-06-30T21:53:55.968Z,19.65
2018-06-30T21:56:26.193Z,19.89
2018-06-30T21:58:56.048Z,19.62
2018-06-30T22:01:26.723Z,19.78
2018-06-30T22:03:57.439Z,19.63
2018-06-30T22:06:26.816Z,19.60
2018-06-30T22:08:56.168Z,19.61
2018-06-30T22:11:26.478Z,19.75
2018-06-30T22:13:56.022Z,19.59
2018-06-30T22:16:25.416Z,19.67
2018-06-30T22:18:55.093Z,19.54
2018-06-30T22:21:24.725Z,19.53
2018-06-30T22:23:54.305Z,19.62
2018-06-30T22:26:24.653Z,19.34
2018-06-30T22:28:53.952Z,19.34
2018-06-30T22:31:23.589Z,19.43
2018-06-30T22:33:53.255Z,19.40
2018-06-30T22:36:22.628Z,19.38
2018-06-30T22:38:52.638Z,19.32
2018-06-30T22:41:22.315Z,19.26
2018-06-30T22:43:51.740Z,19.28
2018-06-30T22:46:21.135Z,19.48
2018-06-30T22:48:50.497Z,19.50
2018-06-30T22:51:20.336Z,19.50
2018-06-30T22:53:49.685Z,19.49
2018-06-30T22:56:19.108Z,19.47
2018-06-30T22:58:48.710Z,19.44
2018-06-30T23:01:18.074Z,19.47
2018-06-30T23:03:47.451Z,19.34
2018-06-30T23:06:17.004Z,19.02
2018-06-30T23:08:52.349Z,18.71
2018-06-30T23:11:22.686Z,18.74
2018-06-30T23:13:52.721Z,18.38
2018-06-30T23:16:23.016Z,18.48
2018-06-30T23:18:52.626Z,18.71
2018-06-30T23:21:21.960Z,18.60
2018-06-30T23:23:51.323Z,18.70
2018-06-30T23:26:27.364Z,18.57
2018-06-30T23:28:56.704Z,18.47
2018-06-30T23:31:26.033Z,18.64
2018-06-30T23:33:55.392Z,18.70
2018-06-30T23:36:24.735Z,18.37
2018-06-30T23:38:54.367Z,18.45
2018-06-30T23:41:24.088Z,18.31
2018-06-30T23:43:54.456Z,18.43
2018-06-30T23:46:23.807Z,18.43
2018-06-30T23:48:53.125Z,18.46
2018-06-30T23:51:22.822Z,18.16
2018-06-30T23:53:52.505Z,18.19
2018-06-30T23:56:22.616Z,18.18
2018-06-30T23:58:53.349Z,18.25
